Main page
METAR-TAF:

METAR-TAF

Airports :

Kashgar Airport

Kashgar, China

latitude: 39-28N, longitude: 075-59E, elevation: 1291 m

Current weather observation

The report was made 56 minutes ago, at 21:00 UTC
Wind 19 kt from the Northwest
Temperature 23°C
Humidity 44%
Pressure 1007 hPa
Visibility 10 km or more
Few clouds at a height of 3300 ft, Cumulonimbus.
Scattered clouds at a height of 4000 ft

METAR: ZWSH 172100Z 31010MPS 9999 FEW033CB SCT040 23/10 Q1007 RETS NOSIG

Time: 05:56 (21:56 UTC)

Forecast

The report was made 6 hours and 53 minutes ago, at 15:03 UTC
Forecast valid from 17 at 18 UTC to 18 at 18 UTC
Wind 10 kt from the West
Visibility 10 km or more
Few clouds at a height of 3000 ft, Cumulonimbus.
Scattered clouds at a height of 4000 ft
Becoming
from 18 at 03 UTC to 18 at 04 UTC
Wind 8 kt from the East
Becoming
from 18 at 13 UTC to 18 at 14 UTC
Wind 14 kt from the Northwest

TAF: ZWSH 171503Z 1718/1818 27005MPS 9999 FEW030CB SCT040 TX34/1809Z TN24/1800Z BECMG 1803/1804 08004MPS BECMG 1813/1814 32007MPS

Weather observations and forecasts of more than 4000 airports (METAR and TAF reports).

The available stations are represented by yellow and red dots on the map.

Hover mouse over dot to see the name of the station.

Then click to see weather observations and forecasts.

To change the map : click on the green buttons with a black cross to zoom in, on the green button with a dash to zoom out, or on the green arrows for adjacent maps.


METAR-TAF: